createdAt,value
2023-09-08T00:02:26.837Z,4.80
2023-09-08T00:04:54.324Z,4.27
2023-09-08T00:07:21.105Z,4.10
2023-09-08T00:09:47.670Z,4.70
2023-09-08T00:12:14.892Z,4.20
2023-09-08T00:14:41.502Z,3.97
2023-09-08T00:17:08.177Z,3.90
2023-09-08T00:19:35.077Z,3.80
2023-09-08T00:22:01.859Z,3.97
2023-09-08T00:24:28.347Z,4.30
2023-09-08T00:26:55.068Z,4.40
2023-09-08T00:29:21.649Z,4.20
2023-09-08T00:31:48.269Z,3.70
2023-09-08T00:34:14.764Z,4.20
2023-09-08T00:36:41.339Z,4.30
2023-09-08T00:39:07.819Z,3.90
2023-09-08T00:41:34.555Z,4.10
2023-09-08T00:44:01.548Z,4.07
2023-09-08T00:46:28.617Z,4.00
2023-09-08T00:48:56.293Z,4.67
2023-09-08T00:51:23.304Z,3.93
2023-09-08T00:53:50.981Z,3.80
2023-09-08T00:56:17.677Z,4.13
2023-09-08T00:58:44.900Z,3.80
2023-09-08T01:01:11.456Z,3.63
2023-09-08T01:03:38.053Z,3.80
2023-09-08T01:06:05.247Z,3.70
2023-09-08T01:08:32.174Z,3.50
2023-09-08T01:10:59.094Z,3.60
2023-09-08T01:13:25.583Z,3.87
2023-09-08T01:15:52.183Z,4.40
2023-09-08T01:18:18.835Z,3.70
2023-09-08T01:20:57.730Z,4.57
2023-09-08T01:23:43.241Z,3.47
2023-09-08T01:26:14.082Z,3.93
2023-09-08T01:28:42.505Z,4.10
2023-09-08T01:31:10.068Z,3.30
2023-09-08T01:33:37.096Z,3.83
2023-09-08T01:36:05.294Z,3.83
2023-09-08T01:38:32.032Z,3.83
2023-09-08T01:40:59.352Z,4.40
2023-09-08T01:43:25.988Z,3.73
2023-09-08T01:45:52.458Z,3.90
2023-09-08T01:48:19.238Z,3.80
2023-09-08T01:50:47.097Z,3.50
2023-09-08T01:53:13.621Z,3.40
2023-09-08T01:55:40.120Z,4.10
2023-09-08T01:58:06.686Z,4.00
2023-09-08T02:00:33.837Z,4.00
2023-09-08T02:03:00.474Z,3.60
2023-09-08T02:05:28.604Z,3.60
2023-09-08T02:07:56.799Z,3.20
2023-09-08T02:10:23.530Z,3.63
2023-09-08T02:12:50.060Z,3.77
2023-09-08T02:15:18.566Z,3.47
2023-09-08T02:17:45.296Z,3.43
2023-09-08T02:20:12.370Z,3.60
2023-09-08T02:22:38.888Z,3.70
2023-09-08T02:25:05.987Z,3.20
2023-09-08T02:27:32.590Z,4.07
2023-09-08T02:29:59.211Z,3.97
2023-09-08T02:32:26.752Z,3.70
2023-09-08T02:34:53.836Z,3.47
2023-09-08T02:37:20.561Z,4.10
2023-09-08T02:39:47.289Z,3.90
2023-09-08T02:42:13.874Z,3.30
2023-09-08T02:44:40.435Z,3.70
2023-09-08T02:47:07.634Z,3.50
2023-09-08T02:49:36.435Z,3.63
2023-09-08T02:52:03.160Z,3.77
2023-09-08T02:54:29.781Z,3.70
2023-09-08T02:56:57.784Z,3.77
2023-09-08T02:59:24.273Z,3.50
2023-09-08T03:01:51.032Z,3.60
2023-09-08T03:04:18.025Z,3.30
2023-09-08T03:06:44.527Z,3.30
2023-09-08T03:09:11.361Z,3.77
2023-09-08T03:11:38.506Z,3.97
2023-09-08T03:14:05.841Z,3.17
2023-09-08T03:16:32.626Z,3.70
2023-09-08T03:18:59.694Z,3.80
2023-09-08T03:21:26.275Z,3.40
2023-09-08T03:23:52.821Z,3.57
2023-09-08T03:26:19.467Z,3.33
2023-09-08T03:28:46.014Z,3.23
2023-09-08T03:31:12.719Z,3.50
2023-09-08T03:33:40.192Z,3.90
2023-09-08T03:36:08.927Z,3.50
2023-09-08T03:38:38.097Z,3.60
2023-09-08T03:41:05.001Z,3.03
2023-09-08T03:43:31.570Z,3.40
2023-09-08T03:45:58.288Z,3.70
2023-09-08T03:48:24.889Z,3.30
2023-09-08T03:50:51.601Z,3.40
2023-09-08T03:53:18.175Z,3.70
2023-09-08T03:55:45.782Z,3.57
2023-09-08T03:58:12.260Z,3.17
2023-09-08T04:00:39.070Z,3.53
2023-09-08T04:03:05.691Z,3.37
2023-09-08T04:05:33.180Z,3.13
2023-09-08T04:07:59.873Z,3.53
2023-09-08T04:10:26.767Z,3.27
2023-09-08T04:12:53.283Z,3.43
2023-09-08T04:15:20.073Z,3.10
2023-09-08T04:17:46.892Z,3.20
2023-09-08T04:20:15.851Z,3.63
2023-09-08T04:22:42.737Z,3.33
2023-09-08T04:25:09.407Z,3.67
2023-09-08T04:27:37.758Z,3.50
2023-09-08T04:30:06.172Z,3.23
2023-09-08T04:32:33.863Z,3.20
2023-09-08T04:35:00.510Z,3.50
2023-09-08T04:37:27.033Z,3.33
2023-09-08T04:39:53.625Z,3.60
2023-09-08T04:42:20.293Z,3.43
2023-09-08T04:44:48.406Z,3.33
2023-09-08T04:47:15.430Z,3.60
2023-09-08T04:49:42.050Z,3.50
2023-09-08T04:52:08.763Z,3.03
2023-09-08T04:54:35.813Z,3.70
2023-09-08T04:57:12.299Z,3.40
2023-09-08T04:59:49.580Z,3.53
2023-09-08T05:02:16.210Z,3.10
2023-09-08T05:04:42.739Z,3.43
2023-09-08T05:07:11.148Z,3.50
2023-09-08T05:09:38.072Z,2.93
2023-09-08T05:12:04.846Z,3.30
2023-09-08T05:14:31.520Z,3.07
2023-09-08T05:16:58.157Z,2.97
2023-09-08T05:19:27.846Z,3.10
2023-09-08T05:21:55.975Z,3.70
2023-09-08T05:24:23.416Z,3.20
2023-09-08T05:26:50.734Z,3.43
2023-09-08T05:29:17.420Z,3.20
2023-09-08T05:31:45.345Z,3.20
2023-09-08T05:34:12.560Z,3.20
2023-09-08T05:36:41.250Z,3.43
2023-09-08T05:39:08.636Z,4.30
2023-09-08T05:41:35.313Z,4.10
2023-09-08T05:44:03.402Z,4.20
2023-09-08T05:46:30.170Z,4.43
2023-09-08T05:48:56.884Z,3.83
2023-09-08T05:51:23.866Z,4.80
2023-09-08T05:53:52.442Z,4.37
2023-09-08T05:56:20.811Z,4.30
2023-09-08T05:58:48.223Z,5.07
2023-09-08T06:01:16.011Z,4.53
2023-09-08T06:03:42.871Z,4.67
2023-09-08T06:06:09.513Z,5.27
2023-09-08T06:08:37.335Z,5.27
2023-09-08T06:11:04.536Z,5.43
2023-09-08T06:13:32.451Z,5.30
2023-09-08T06:15:58.984Z,4.93
2023-09-08T06:18:29.425Z,4.97
2023-09-08T06:20:57.920Z,4.80
2023-09-08T06:23:24.959Z,5.47
2023-09-08T06:26:00.963Z,4.97
2023-09-08T06:28:29.437Z,5.53
2023-09-08T06:30:56.132Z,5.77
2023-09-08T06:33:23.618Z,5.10
2023-09-08T06:35:50.748Z,5.40
2023-09-08T06:38:17.708Z,5.07
2023-09-08T06:40:44.580Z,5.27
2023-09-08T06:43:11.606Z,4.90
2023-09-08T06:45:49.915Z,4.60
2023-09-08T06:48:17.755Z,5.27
2023-09-08T06:50:44.535Z,5.00
2023-09-08T06:53:11.843Z,5.00
2023-09-08T06:55:38.694Z,5.20
2023-09-08T06:58:06.004Z,4.73
2023-09-08T07:00:32.620Z,5.03
2023-09-08T07:02:59.712Z,6.00
2023-09-08T07:05:26.799Z,5.20
2023-09-08T07:07:53.437Z,4.87
2023-09-08T07:10:20.897Z,5.60
2023-09-08T07:12:49.171Z,5.33
2023-09-08T07:15:16.181Z,4.87
2023-09-08T07:17:43.322Z,5.13
2023-09-08T07:20:10.568Z,4.83
2023-09-08T07:22:37.492Z,5.40
2023-09-08T07:25:05.090Z,5.17
2023-09-08T07:27:31.756Z,5.40
2023-09-08T07:29:58.532Z,5.60
2023-09-08T07:32:25.831Z,5.43
2023-09-08T07:34:56.062Z,5.00
2023-09-08T07:37:24.456Z,4.90
2023-09-08T07:39:52.260Z,4.93
2023-09-08T07:42:19.909Z,4.90
2023-09-08T07:44:46.605Z,5.40
2023-09-08T07:47:13.186Z,4.77
2023-09-08T07:49:39.748Z,5.23
2023-09-08T07:52:08.307Z,5.37
2023-09-08T07:54:34.831Z,5.33
2023-09-08T07:57:01.352Z,4.60
2023-09-08T07:59:27.971Z,4.43
2023-09-08T08:01:54.745Z,5.20
2023-09-08T08:04:21.385Z,5.23
2023-09-08T08:06:49.230Z,5.30
2023-09-08T08:09:16.097Z,5.07
2023-09-08T08:11:42.855Z,5.30
2023-09-08T08:14:09.465Z,4.90
2023-09-08T08:16:36.886Z,5.10
2023-09-08T08:19:04.357Z,4.87
2023-09-08T08:21:31.156Z,4.77
2023-09-08T08:23:57.768Z,4.50
2023-09-08T08:26:28.533Z,4.93
2023-09-08T08:28:55.051Z,4.40
2023-09-08T08:31:21.669Z,4.70
2023-09-08T08:33:48.297Z,5.00
2023-09-08T08:36:15.506Z,4.87
2023-09-08T08:38:42.100Z,4.53
2023-09-08T08:41:08.672Z,4.50
2023-09-08T08:43:35.582Z,4.80
2023-09-08T08:46:03.088Z,4.67
2023-09-08T08:48:31.690Z,4.50
2023-09-08T08:51:00.033Z,4.97
2023-09-08T08:53:27.866Z,4.73
2023-09-08T08:55:58.239Z,4.40
2023-09-08T08:58:26.108Z,5.03
2023-09-08T09:00:55.312Z,4.87
2023-09-08T09:03:24.029Z,4.63
2023-09-08T09:05:50.571Z,4.27
2023-09-08T09:08:19.523Z,4.50
2023-09-08T09:10:46.321Z,4.50
2023-09-08T09:13:12.905Z,4.40
2023-09-08T09:15:39.476Z,4.47
2023-09-08T09:18:07.324Z,4.33
2023-09-08T09:20:33.985Z,4.57
2023-09-08T09:23:00.796Z,4.43
2023-09-08T09:25:31.049Z,4.70
2023-09-08T09:28:03.301Z,4.20
2023-09-08T09:30:47.915Z,4.57
2023-09-08T09:33:14.591Z,4.80
2023-09-08T09:35:49.298Z,4.47
2023-09-08T09:38:15.930Z,4.70
2023-09-08T09:40:42.422Z,3.93
2023-09-08T09:43:11.000Z,4.23
2023-09-08T09:45:39.238Z,4.50
2023-09-08T09:48:08.128Z,4.30
2023-09-08T09:50:37.336Z,3.90
2023-09-08T09:53:12.090Z,3.90
2023-09-08T09:55:40.958Z,3.77
2023-09-08T09:58:08.788Z,3.80
2023-09-08T10:00:36.366Z,3.97
2023-09-08T10:03:04.734Z,4.17
2023-09-08T10:05:31.530Z,3.77
2023-09-08T10:07:59.037Z,4.47
2023-09-08T10:10:29.649Z,3.87
2023-09-08T10:12:58.624Z,3.80
2023-09-08T10:15:25.770Z,4.17
2023-09-08T10:17:58.040Z,3.83
2023-09-08T10:20:25.955Z,4.03
2023-09-08T10:23:03.677Z,3.90
2023-09-08T10:25:36.499Z,3.87
2023-09-08T10:28:04.946Z,3.80
2023-09-08T10:30:32.730Z,4.20
2023-09-08T10:33:00.607Z,3.57
2023-09-08T10:35:27.393Z,4.30
2023-09-08T10:38:29.848Z,3.77
2023-09-08T10:41:18.552Z,4.07
2023-09-08T10:43:46.526Z,4.00
2023-09-08T10:46:23.061Z,3.77
2023-09-08T10:48:49.672Z,3.10
2023-09-08T10:51:18.309Z,3.57
2023-09-08T10:53:48.877Z,3.77
2023-09-08T10:56:18.214Z,3.60
2023-09-08T10:58:50.033Z,3.57
2023-09-08T11:01:27.670Z,3.63
2023-09-08T11:03:55.148Z,3.90
2023-09-08T11:06:31.215Z,3.67
2023-09-08T11:09:08.405Z,3.37
2023-09-08T11:11:35.185Z,3.60
2023-09-08T11:14:02.818Z,3.80
2023-09-08T11:16:32.678Z,3.60
2023-09-08T11:18:59.354Z,3.73
2023-09-08T11:21:25.972Z,3.60
2023-09-08T11:23:52.636Z,3.70
2023-09-08T11:26:19.893Z,4.00
2023-09-08T11:28:50.230Z,3.67
2023-09-08T11:31:17.307Z,3.50
2023-09-08T11:33:43.828Z,3.43
2023-09-08T11:36:20.353Z,3.80
2023-09-08T11:38:47.360Z,3.40
2023-09-08T11:41:14.362Z,3.17
2023-09-08T11:43:41.238Z,3.67
2023-09-08T11:46:08.021Z,3.90
2023-09-08T11:48:35.236Z,3.60
2023-09-08T11:51:01.993Z,3.53
2023-09-08T11:53:28.920Z,3.40
2023-09-08T11:55:55.878Z,3.17
2023-09-08T11:58:23.425Z,3.37
2023-09-08T12:00:50.667Z,3.23
2023-09-08T12:03:18.090Z,3.30
2023-09-08T12:05:51.549Z,3.60
2023-09-08T12:08:18.097Z,3.57
2023-09-08T12:10:44.735Z,3.97
2023-09-08T12:13:11.568Z,3.57
2023-09-08T12:15:40.297Z,3.47
2023-09-08T12:18:09.377Z,3.90
2023-09-08T12:20:37.595Z,4.07
2023-09-08T12:23:06.616Z,3.57
2023-09-08T12:25:33.278Z,3.83
2023-09-08T12:28:00.496Z,3.23
2023-09-08T12:30:33.642Z,3.47
2023-09-08T12:33:02.753Z,3.40
2023-09-08T12:35:32.393Z,3.90
2023-09-08T12:38:01.158Z,3.60
2023-09-08T12:40:28.905Z,3.30
2023-09-08T12:42:59.617Z,3.13
2023-09-08T12:45:30.770Z,3.60
2023-09-08T12:48:00.203Z,3.37
2023-09-08T12:50:27.374Z,3.67
2023-09-08T12:52:54.645Z,3.30
2023-09-08T12:55:21.704Z,3.63
2023-09-08T12:57:49.227Z,3.50
2023-09-08T13:00:15.991Z,3.53
2023-09-08T13:02:42.803Z,3.80
2023-09-08T13:05:09.554Z,3.43
2023-09-08T13:07:36.075Z,3.43
2023-09-08T13:10:02.778Z,3.33
2023-09-08T13:12:29.385Z,3.67
2023-09-08T13:14:55.914Z,3.60
2023-09-08T13:17:22.489Z,3.30
2023-09-08T13:19:49.170Z,2.90
2023-09-08T13:22:15.732Z,3.80
2023-09-08T13:24:42.282Z,3.53
2023-09-08T13:27:08.827Z,4.10
2023-09-08T13:29:35.394Z,3.53
2023-09-08T13:32:02.367Z,3.40
2023-09-08T13:34:28.976Z,3.13
2023-09-08T13:36:55.533Z,3.60
2023-09-08T13:39:22.037Z,3.70
2023-09-08T13:41:56.105Z,3.30
2023-09-08T13:44:24.457Z,3.40
2023-09-08T13:46:51.958Z,3.53
2023-09-08T13:49:20.591Z,3.40
2023-09-08T13:51:49.317Z,3.20
2023-09-08T13:54:18.109Z,3.13
2023-09-08T13:56:45.388Z,3.40
2023-09-08T13:59:13.344Z,3.23
2023-09-08T14:01:41.644Z,3.00
2023-09-08T14:04:11.248Z,3.33
2023-09-08T14:14:06.604Z,3.00
2023-09-08T14:16:33.403Z,2.90
2023-09-08T14:19:00.044Z,2.77
2023-09-08T14:21:28.377Z,2.83
2023-09-08T14:23:56.778Z,3.27
2023-09-08T14:26:23.394Z,2.87
2023-09-08T14:28:50.246Z,3.23
2023-09-08T14:31:16.789Z,2.97
2023-09-08T14:33:43.485Z,3.13
2023-09-08T14:36:10.054Z,3.00
2023-09-08T14:38:36.588Z,3.10
2023-09-08T14:41:03.933Z,3.10
2023-09-08T14:43:30.973Z,3.10
2023-09-08T14:46:00.450Z,3.10
2023-09-08T14:48:27.201Z,2.97
2023-09-08T14:50:54.972Z,2.67
2023-09-08T14:53:21.671Z,3.47
2023-09-08T14:55:49.512Z,3.17
2023-09-08T14:58:16.887Z,3.27
2023-09-08T15:00:43.822Z,3.13
2023-09-08T15:03:11.110Z,3.10
2023-09-08T15:05:37.674Z,2.90
2023-09-08T15:08:04.429Z,2.50
2023-09-08T15:10:31.054Z,3.40
2023-09-08T15:12:57.763Z,2.80
2023-09-08T15:15:27.202Z,2.77
2023-09-08T15:17:55.119Z,2.97
2023-09-08T15:20:22.874Z,2.93
2023-09-08T15:22:50.067Z,2.80
2023-09-08T15:25:17.866Z,3.10
2023-09-08T15:27:44.438Z,3.17
2023-09-08T15:30:13.772Z,3.00
2023-09-08T15:32:40.921Z,2.80
2023-09-08T15:35:08.881Z,2.77
2023-09-08T15:37:35.519Z,2.83
2023-09-08T15:40:04.411Z,2.97
2023-09-08T15:42:31.478Z,3.00
2023-09-08T15:44:58.081Z,2.93
2023-09-08T15:47:24.687Z,2.90
2023-09-08T15:49:52.037Z,3.40
2023-09-08T15:52:18.563Z,2.60
2023-09-08T15:54:45.229Z,2.87
2023-09-08T15:57:11.883Z,3.20
2023-09-08T15:59:39.475Z,2.87
2023-09-08T16:02:06.212Z,3.10
2023-09-08T16:04:32.915Z,3.10
2023-09-08T16:06:59.628Z,3.00
2023-09-08T16:09:26.163Z,2.90
2023-09-08T16:11:52.709Z,2.80
2023-09-08T16:14:19.206Z,3.03
2023-09-08T16:16:45.805Z,2.80
2023-09-08T16:19:12.406Z,2.73
2023-09-08T16:21:38.936Z,3.23
2023-09-08T16:24:05.730Z,3.10
2023-09-08T16:26:32.244Z,2.83
2023-09-08T16:28:58.724Z,2.73
2023-09-08T16:31:25.287Z,2.60
2023-09-08T16:33:51.828Z,3.00
2023-09-08T16:36:18.354Z,2.80
2023-09-08T16:38:44.868Z,2.60
2023-09-08T16:41:11.454Z,2.70
2023-09-08T16:43:38.155Z,3.00
2023-09-08T16:46:04.912Z,2.77
2023-09-08T16:48:31.547Z,2.93
2023-09-08T16:50:58.137Z,2.67
2023-09-08T16:53:24.633Z,2.83
2023-09-08T16:55:51.170Z,2.97
2023-09-08T16:58:17.730Z,2.70
2023-09-08T17:00:44.242Z,2.90
2023-09-08T17:03:10.856Z,3.10
2023-09-08T17:05:37.662Z,2.70
2023-09-08T17:08:04.516Z,3.27
2023-09-08T17:10:31.206Z,2.87
2023-09-08T17:12:58.453Z,3.23
2023-09-08T17:15:25.196Z,2.90
2023-09-08T17:17:51.785Z,3.17
2023-09-08T17:20:18.441Z,2.87
2023-09-08T17:22:45.064Z,3.37
2023-09-08T17:25:12.105Z,2.90
2023-09-08T17:27:43.041Z,2.93
2023-09-08T17:30:09.974Z,2.90
2023-09-08T17:32:36.518Z,2.80
2023-09-08T17:35:03.414Z,3.00
2023-09-08T17:37:29.938Z,2.97
2023-09-08T17:39:56.501Z,2.73
2023-09-08T17:42:22.977Z,2.87
2023-09-08T17:44:49.595Z,2.90
2023-09-08T17:47:16.130Z,3.20
2023-09-08T17:49:43.769Z,2.90
2023-09-08T17:52:10.331Z,2.60
2023-09-08T17:54:36.902Z,2.87
2023-09-08T17:57:03.599Z,2.87
2023-09-08T17:59:30.102Z,3.03
2023-09-08T18:01:56.707Z,2.60
2023-09-08T18:04:23.526Z,2.90
2023-09-08T18:06:50.266Z,2.70
2023-09-08T18:09:16.945Z,2.60
2023-09-08T18:11:43.491Z,3.20
2023-09-08T18:14:11.902Z,3.07
2023-09-08T18:16:38.561Z,2.60
2023-09-08T18:19:05.170Z,2.80
2023-09-08T18:21:31.690Z,3.00
2023-09-08T18:23:58.181Z,2.77
2023-09-08T18:26:24.711Z,3.00
2023-09-08T18:28:51.289Z,3.07
2023-09-08T18:31:17.837Z,3.33
2023-09-08T18:33:44.547Z,2.83
2023-09-08T18:36:11.137Z,2.97
2023-09-08T18:38:37.854Z,2.70
2023-09-08T18:41:04.445Z,2.70
2023-09-08T18:43:31.054Z,2.77
2023-09-08T18:45:57.532Z,2.80
2023-09-08T18:48:24.320Z,2.73
2023-09-08T18:50:50.929Z,2.70
2023-09-08T18:53:17.455Z,2.57
2023-09-08T18:55:44.001Z,3.17
2023-09-08T18:58:10.608Z,2.73
2023-09-08T19:00:37.186Z,2.90
2023-09-08T19:03:04.356Z,2.50
2023-09-08T19:05:31.130Z,2.77
2023-09-08T19:07:57.753Z,2.80
2023-09-08T19:10:24.313Z,2.50
2023-09-08T19:12:50.880Z,2.60
2023-09-08T19:15:18.285Z,2.97
2023-09-08T19:17:45.091Z,3.17
2023-09-08T19:20:12.569Z,2.90
2023-09-08T19:22:39.187Z,2.87
2023-09-08T19:25:07.446Z,2.90
2023-09-08T19:27:34.301Z,2.90
2023-09-08T19:30:00.860Z,2.83
2023-09-08T19:32:27.483Z,2.70
2023-09-08T19:34:54.128Z,3.17
2023-09-08T19:37:20.746Z,2.80
2023-09-08T19:39:47.277Z,2.70
2023-09-08T19:42:16.842Z,2.73
2023-09-08T19:44:43.387Z,2.73
2023-09-08T19:47:09.947Z,3.20
2023-09-08T19:49:38.064Z,2.80
2023-09-08T19:52:05.320Z,3.07
2023-09-08T19:54:31.836Z,2.97
2023-09-08T19:56:58.414Z,3.03
2023-09-08T19:59:24.892Z,3.13
2023-09-08T20:01:51.477Z,2.93
2023-09-08T20:04:18.025Z,2.70
2023-09-08T20:06:46.402Z,2.90
2023-09-08T20:09:14.085Z,3.10
2023-09-08T20:11:42.193Z,3.13
2023-09-08T20:14:09.992Z,3.07
2023-09-08T20:16:36.942Z,2.77
2023-09-08T20:19:03.593Z,3.53
2023-09-08T20:21:30.533Z,3.33
2023-09-08T20:23:57.087Z,3.03
2023-09-08T20:26:23.785Z,2.87
2023-09-08T20:28:50.810Z,3.00
2023-09-08T20:31:17.809Z,3.20
2023-09-08T20:33:45.566Z,3.10
2023-09-08T20:36:12.973Z,3.10
2023-09-08T20:38:39.688Z,3.40
2023-09-08T20:41:06.583Z,3.47
2023-09-08T20:43:33.663Z,3.00
2023-09-08T20:46:06.033Z,3.00
2023-09-08T20:48:37.147Z,3.20
2023-09-08T20:51:07.054Z,3.00
2023-09-08T20:53:36.993Z,3.13
2023-09-08T20:56:04.459Z,3.00
2023-09-08T20:58:30.982Z,3.17
2023-09-08T21:00:59.492Z,3.30
2023-09-08T21:03:26.055Z,3.40
2023-09-08T21:05:52.616Z,3.30
2023-09-08T21:08:20.283Z,3.43
2023-09-08T21:10:50.679Z,3.17
2023-09-08T21:13:17.730Z,3.60
2023-09-08T21:15:44.322Z,3.70
2023-09-08T21:18:11.061Z,3.43
2023-09-08T21:20:38.165Z,3.47
2023-09-08T21:23:04.941Z,3.80
2023-09-08T21:25:33.111Z,3.40
2023-09-08T21:27:59.926Z,3.60
2023-09-08T21:30:26.737Z,2.83
2023-09-08T21:32:54.078Z,3.30
2023-09-08T21:35:20.661Z,3.40
2023-09-08T21:37:47.184Z,3.37
2023-09-08T21:40:14.047Z,3.57
2023-09-08T21:42:40.765Z,3.63
2023-09-08T21:45:07.919Z,3.70
2023-09-08T21:47:34.764Z,3.33
2023-09-08T21:50:01.354Z,3.47
2023-09-08T21:52:36.939Z,3.17
2023-09-08T21:55:05.613Z,3.50
2023-09-08T21:57:32.252Z,3.20
2023-09-08T21:59:58.894Z,3.73
2023-09-08T22:02:25.658Z,3.20
2023-09-08T22:04:52.461Z,3.77
2023-09-08T22:07:19.091Z,3.40
2023-09-08T22:09:45.808Z,3.67
2023-09-08T22:12:16.910Z,3.30
2023-09-08T22:14:43.513Z,3.77
2023-09-08T22:17:10.020Z,3.40
2023-09-08T22:19:36.591Z,3.90
2023-09-08T22:22:03.327Z,3.70
2023-09-08T22:24:29.839Z,3.83
2023-09-08T22:26:56.607Z,3.73
2023-09-08T22:29:23.569Z,3.73
2023-09-08T22:31:50.114Z,3.67
2023-09-08T22:34:16.814Z,3.40
2023-09-08T22:36:43.462Z,3.50
2023-09-08T22:39:12.379Z,3.33
2023-09-08T22:41:39.993Z,3.70
2023-09-08T22:44:06.631Z,3.80
2023-09-08T22:46:33.382Z,4.47
2023-09-08T22:49:00.034Z,3.53
2023-09-08T22:51:26.548Z,3.47
2023-09-08T22:53:53.302Z,3.70
2023-09-08T22:56:19.923Z,3.77
2023-09-08T22:58:46.602Z,3.90
2023-09-08T23:01:13.190Z,3.63
2023-09-08T23:03:40.060Z,3.50
2023-09-08T23:06:06.987Z,3.50
2023-09-08T23:08:33.657Z,3.60
2023-09-08T23:11:00.226Z,4.13
2023-09-08T23:13:26.791Z,4.10
2023-09-08T23:15:53.453Z,3.93
2023-09-08T23:18:20.498Z,3.57
2023-09-08T23:20:49.095Z,4.27
2023-09-08T23:23:16.261Z,4.00
2023-09-08T23:25:42.989Z,3.67
2023-09-08T23:28:09.524Z,3.50
2023-09-08T23:30:36.573Z,3.73
2023-09-08T23:33:03.842Z,3.87
2023-09-08T23:35:30.492Z,3.83
2023-09-08T23:37:57.115Z,3.93
2023-09-08T23:40:25.514Z,3.70
2023-09-08T23:42:52.041Z,3.60
2023-09-08T23:45:18.609Z,4.03
2023-09-08T23:47:45.133Z,3.50
2023-09-08T23:50:11.865Z,3.63
2023-09-08T23:52:41.035Z,3.80
2023-09-08T23:55:07.958Z,3.50
2023-09-08T23:57:34.623Z,3.83
